Flight Track Log - Related Links

Times and Time Zones

All times are in EST time to prevent confusion due to time zone crossing. See the FLG3861 flight status page for this flight to view local times or setup timezone preferences in your user account.

Time Position Orientation Groundspeed Altitude Reporting Facility
EST Latitude Longitude Course Direction KTS MPH feet Rate Location/Type
Thu 09:55:01 PM 42.2050 -83.3528 164° South 156 180 1,200  Level Cleveland Center
Thu 09:56:14 PM 42.1500 -83.3317 164° South 191 220 3,900 2,203 Climbing Cleveland Center
Thu 09:56:20 PM 42.1444 -83.3247 137° Southeast 236 272 4,100 2,710 Climbing Cleveland Center
Thu 09:57:16 PM 42.0936 -83.2500 133° Southeast 275 316 6,700 2,827 Climbing Cleveland Center
Thu 09:58:04 PM 42.1028 -83.1583 82° East 326 375 9,000 2,557 Climbing Cleveland Center
Thu 09:58:17 PM 42.1056 -83.1450 74° East 314 361 9,300 2,060 Climbing Cleveland Center
Thu 09:59:11 PM 42.1433 -83.0372 65° Northeast 334 384 11,300 2,032 Climbing Cleveland Center
Thu 09:59:19 PM 42.1425 -83.0331 105° East 329 379 11,400 1,565 Climbing Cleveland Center
Thu 10:00:20 PM 42.1917 -82.9111 61° Northeast 375 432 13,100 2,000 Climbing Cleveland Center
Thu 10:01:22 PM 42.2511 -82.7547 63° Northeast 392 451 15,500 1,887 Climbing Cleveland Center
Thu 10:02:24 PM 42.3039 -82.6214 62° Northeast 403 464 17,000 1,366 Climbing Cleveland Center
Thu 10:03:25 PM 42.3461 -82.4756 69° East 433 498 18,300 1,220 Climbing Cleveland Center
Thu 10:04:27 PM 42.3481 -82.3158 89° East 428 493 19,500 829 Climbing Cleveland Center
Thu 10:05:28 PM 42.3489 -82.1481 90° East 444 511 20,000 488 Climbing Cleveland Center
Thu 10:06:30 PM 42.3489 -81.9700 90° East 465 535 20,500 488 Climbing Cleveland Center
Thu 10:07:31 PM 42.3492 -81.7869 90° East 478 550 21,000 488 Climbing Cleveland Center
Thu 10:08:33 PM 42.3500 -81.5994 90° East 490 564 21,500 488 Climbing Cleveland Center
Thu 10:09:34 PM 42.3492 -81.4114 90° East 495 570 22,000 537 Climbing Cleveland Center
Thu 10:10:36 PM 42.3492 -81.1894 90° East 501 577 22,600 537 Climbing Cleveland Center
Thu 10:11:37 PM 42.3478 -80.9986 90° East 502 578 23,100 639 Climbing Cleveland Center
Thu 10:12:38 PM 42.3472 -80.8078 90° East 502 578 23,900 780 Climbing Cleveland Center
Thu 10:13:40 PM 42.3461 -80.6231 90° East 492 566 24,700 634 Climbing Cleveland Center
Thu 10:14:41 PM 42.3444 -80.4369 91° East 489 563 25,200 488 Climbing Cleveland Center
Thu 10:15:43 PM 42.3419 -80.2492 91° East 494 568 25,700 488 Climbing Cleveland Center
Thu 10:16:44 PM 42.3397 -80.0614 91° East 495 570 26,200 537 Climbing Cleveland Center
Thu 10:17:46 PM 42.3364 -79.8656 91° East 489 563 26,800 390 Climbing Cleveland Center
Thu 10:18:47 PM 42.3319 -79.6806 92° East 492 566 27,000 98 Climbing Cleveland Center
Thu 10:19:49 PM 42.3286 -79.4925 91° East 502 578 27,000  Level Cleveland Center
Thu 10:20:50 PM 42.3253 -79.2997 91° East 514 592 27,000  Level Cleveland Center
Thu 10:21:51 PM 42.3208 -79.1083 92° East 513 590 27,000  Level Cleveland Center
Thu 10:22:53 PM 42.3161 -78.8917 92° East 511 588 27,000  Level Cleveland Center
Thu 10:23:54 PM 42.3111 -78.7022 92° East 509 586 27,000 -244 Level Cleveland Center
Thu 10:24:56 PM 42.3067 -78.5125 92° East 509 586 26,500 -878 Descending Cleveland Center
Thu 10:25:57 PM 42.3003 -78.3233 93° East 508 585 25,200 -1,377 Descending Cleveland Center
Thu 10:26:58 PM 42.2956 -78.1369 92° East 504 580 23,700 -1,463 Descending Cleveland Center
Thu 10:28:00 PM 42.2892 -77.9531 93° East 498 573 22,200 -1,610 Descending Cleveland Center
Thu 10:29:01 PM 42.2808 -77.7336 93° East 494 568 20,400 -1,623 Descending Cleveland Center
Thu 10:30:02 PM 42.2756 -77.5550 92° East 487 560 18,900 -1,366 Descending Cleveland Center
Thu 10:31:04 PM 42.2683 -77.3828 93° East 471 542 17,600 -878 Descending Cleveland Center
Thu 10:32:05 PM 42.2619 -77.2106 93° East 464 534 17,100 -268 Descending Cleveland Center
Thu 10:32:56 PM 42.2564 -77.0661 93° East 468 539 17,100 -703 Level New Center
Thu 10:33:56 PM 42.2486 -76.8944 93° East 468 539 15,800 -1,850 Descending New Center
Thu 10:34:56 PM 42.2125 -76.7428 108° East 413 475 13,400 -2,250 Descending New Center
Thu 10:35:56 PM 42.1808 -76.6253 110° East 395 455 11,300 -2,100 Descending New Center
Thu 10:36:56 PM 42.1636 -76.5089 101° East 341 392 9,200 -1,750 Descending New Center
Thu 10:37:56 PM 42.1753 -76.3981 82° East 306 352 7,800 -1,500 Descending New Center
Thu 10:38:56 PM 42.2008 -76.2967 71° East 295 339 6,200 -1,350 Descending New Center
Thu 10:39:56 PM 42.2258 -76.2036 70° East 278 320 5,100 -1,000 Descending New Center
Thu 10:40:56 PM 42.2461 -76.1267 70° East 248 285 4,200 -900 Descending New Center
Thu 10:41:56 PM 42.2658 -76.0583 69° East 212 244 3,300 -950 Descending New Center
Thu 10:42:56 PM 42.2428 -76.0117 124° Southeast 139 160 2,300 -600 Descending New Center
Thu 10:43:56 PM 42.2342 -75.9689 105° East 139 160 2,100 -200 Descending New Center

Login

Don't have an account? Register now (free) for customized features, flight alerts, and more!